EGBBLJLJ

Guest
Details From EGBB - Birmingham
To LJLJ - Ljubljana
Flight Number -
Tags Generated
Created
Modified
Stats Distance 733 nm / 1,358 km
Max Altitude 0 ft / 0 m
Waypoints 5
Social Downloads 0
Likes 0
Share VATSIM

Download

Looking for another format? Having issues loading an existing format? Contact us
Advertisement - Login to hide

Notes

Generated

Route

EGBB ONC DS041 ISTRI LJLJ

ID Type Via Altitude Latitude Longitude Leg Dist Tot Dist Heading (true) Name
O EGBB APT - 0 ft / 0 m 52.45113˚ -1.75493˚ - 0 nm - -
ONC NDB - 0 ft / 0 m 50.48944˚ 4.55528˚ 263 nm 263 nm 114° / 119° CHARLEROI NDB
DS041 FIX - 0 ft / 0 m 48.76784˚ 9.02765˚ 202 nm 466 nm 119° / 122° -
ISTRI FIX - 0 ft / 0 m 46.49805˚ 13.95939˚ 241 nm 707 nm 122° / 126° -
O LJLJ APT - 0 ft / 0 m 46.23249˚ 14.44039˚ 25 nm 733 nm 128° / 129° -

Altitude Profile

Advertisement - Login to hide

Weather


0- 5 10 15 20 25 30 35+ Temperature / ° C

Clouds and Precipitation
Forecast for 2017-12-16 06:00 UTC. Updated 21 minutes ago

Ground ~20,000 ft ~40,000 ft Winds

EGBB

Details ICAO EGBB (BHX)
Name Birmingham
Region United Kingdom
Timezone Europe/London (UTC+0.0)
Stats Elevation 327 ft / 100 m (AMSL)
Location 52.455966° -1.750378°
Runways 1
Magnetic Variation 1.139° W

METAR

EGBB 160120Z 30006KT CAVOK 01/M01 Q1012

Decode

TAF

TAF EGBB 152304Z 1600/1624 31009KT CAVOK BECMG 1609/1612 BKN025 TEMPO 1610/1624 BKN012 PROB40 TEMPO 1611/1622 4000 RADZ BKN009

Decode

Departure Runways

ID Width Length Bearing (true) Bearing (mag) Surface Threshold Offset Overrun Length
15 151 ft / 46 m 8,477 ft / 2,584 m 145.87° 147.01° Asphalt 925 ft / 282 m 0 ft / 0 m
33 151 ft / 46 m 8,477 ft / 2,584 m 325.89° 327.03° Asphalt 958 ft / 292 m 0 ft / 0 m

LJLJ

Details ICAO LJLJ (LJU)
Name LJUBLJANA
Region Slovenia
Timezone Europe/Ljubljana (UTC+1.0)
Stats Elevation 1,273 ft / 388 m (AMSL)
Location 46.223685° 14.457608°
Runways 1
Magnetic Variation 3.662° E

METAR

LJLJ 160130Z VRB01KT 4000 -SN BR BKN003 BKN012 00/M00 Q1001 NOSIG

Decode

TAF

TAF LJLJ 152000Z 1521/1621 11005KT 7000 -RA BKN030 OVC050 TEMPO 1521/1523 5000 RA BR BKN015 BECMG 1522/1524 2500 SN BR BKN010 OVC020 BECMG 1603/1606 4500 -SN SCT010 OVC020 BECMG 1607/1609 7000 NSW SCT010 BKN025 BECMG 1612/1615 9999 SCT020 PROB30 TEMPO 1615/1621 BKN020

Decode

Destination Runways

ID Width Length Bearing (true) Bearing (mag) Surface Threshold Offset Overrun Length
13 148 ft / 45 m 10,811 ft / 3,295 m 126.47° 122.81° Asphalt 0 ft / 0 m 0 ft / 0 m
31 148 ft / 45 m 10,811 ft / 3,295 m 306.49° 302.83° Asphalt 0 ft / 0 m 0 ft / 0 m

Approach Navaids

Runway Type Ident Frequency Range Bearing (true) Bearing (mag) Slope Elevation
31 Localiser LJB 110.50 MHz 18 nm / 33 km 306.46° 302.80° - 1,282 ft / 391 m (AMSL)
31 Glidescope LJB 110.50 MHz 10 nm / 19 km 306.48° 302.82° 3.00° 1,198 ft / 365 m (AMSL)
31 DME LJB 110.50 MHz 18 nm / 33 km - - - 1,198 ft / 365 m (AMSL)

Popular Alternatives